sensor_id;sensor_type;location;lat;lon;timestamp;temperature;humidity
16384;DHT22;8301;51.440;6.610;2023-12-04T00:02:24;0.20;99.90
16384;DHT22;8301;51.440;6.610;2023-12-04T00:04:51;0.20;99.90
16384;DHT22;8301;51.440;6.610;2023-12-04T00:07:18;0.20;99.90
16384;DHT22;8301;51.440;6.610;2023-12-04T00:09:45;0.20;99.90
16384;DHT22;8301;51.440;6.610;2023-12-04T00:12:11;0.20;99.90
16384;DHT22;8301;51.440;6.610;2023-12-04T00:14:38;0.20;99.90
16384;DHT22;8301;51.440;6.610;2023-12-04T00:17:05;0.20;99.90
16384;DHT22;8301;51.440;6.610;2023-12-04T00:19:32;0.30;99.90
16384;DHT22;8301;51.440;6.610;2023-12-04T00:21:59;0.30;99.90
16384;DHT22;8301;51.440;6.610;2023-12-04T00:24:25;0.30;99.90
16384;DHT22;8301;51.440;6.610;2023-12-04T00:26:52;0.40;99.90
16384;DHT22;8301;51.440;6.610;2023-12-04T00:29:19;0.40;99.90
16384;DHT22;8301;51.440;6.610;2023-12-04T00:31:50;0.40;99.90
16384;DHT22;8301;51.440;6.610;2023-12-04T00:34:14;0.30;99.90
16384;DHT22;8301;51.440;6.610;2023-12-04T00:36:41;0.40;99.90
16384;DHT22;8301;51.440;6.610;2023-12-04T00:39:08;0.40;99.90
16384;DHT22;8301;51.440;6.610;2023-12-04T00:41:37;0.40;99.90
16384;DHT22;8301;51.440;6.610;2023-12-04T00:44:03;0.40;99.90
16384;DHT22;8301;51.440;6.610;2023-12-04T00:46:30;0.40;99.90
16384;DHT22;8301;51.440;6.610;2023-12-04T00:48:57;0.40;99.90
16384;DHT22;8301;51.440;6.610;2023-12-04T00:51:25;0.40;99.90
16384;DHT22;8301;51.440;6.610;2023-12-04T00:53:52;0.40;99.90
16384;DHT22;8301;51.440;6.610;2023-12-04T00:56:19;0.50;99.90
16384;DHT22;8301;51.440;6.610;2023-12-04T00:58:46;0.50;99.90
16384;DHT22;8301;51.440;6.610;2023-12-04T01:01:13;0.40;99.90
16384;DHT22;8301;51.440;6.610;2023-12-04T01:03:40;0.40;99.90
16384;DHT22;8301;51.440;6.610;2023-12-04T01:06:06;0.40;99.90
16384;DHT22;8301;51.440;6.610;2023-12-04T01:08:33;0.40;99.90
16384;DHT22;8301;51.440;6.610;2023-12-04T01:11:00;0.50;99.90
16384;DHT22;8301;51.440;6.610;2023-12-04T01:13:27;0.50;99.90
16384;DHT22;8301;51.440;6.610;2023-12-04T01:15:54;0.50;99.90
16384;DHT22;8301;51.440;6.610;2023-12-04T01:18:21;0.50;99.90
16384;DHT22;8301;51.440;6.610;2023-12-04T01:20:48;0.50;99.90
16384;DHT22;8301;51.440;6.610;2023-12-04T01:23:15;0.50;16.60
16384;DHT22;8301;51.440;6.610;2023-12-04T01:25:42;0.40;1.00
16384;DHT22;8301;51.440;6.610;2023-12-04T01:28:10;0.50;1.00
16384;DHT22;8301;51.440;6.610;2023-12-04T01:30:37;0.50;1.00
16384;DHT22;8301;51.440;6.610;2023-12-04T01:33:04;0.50;1.00
16384;DHT22;8301;51.440;6.610;2023-12-04T01:35:31;0.50;1.00
16384;DHT22;8301;51.440;6.610;2023-12-04T01:37:57;0.50;1.00
16384;DHT22;8301;51.440;6.610;2023-12-04T01:40:26;0.50;1.00
16384;DHT22;8301;51.440;6.610;2023-12-04T01:42:56;0.50;1.00
16384;DHT22;8301;51.440;6.610;2023-12-04T01:45:26;0.60;1.00
16384;DHT22;8301;51.440;6.610;2023-12-04T01:47:53;0.60;1.00
16384;DHT22;8301;51.440;6.610;2023-12-04T01:50:20;0.60;1.00
16384;DHT22;8301;51.440;6.610;2023-12-04T01:52:47;0.60;1.00
16384;DHT22;8301;51.440;6.610;2023-12-04T01:55:14;0.60;1.00
16384;DHT22;8301;51.440;6.610;2023-12-04T01:57:41;0.60;1.00
16384;DHT22;8301;51.440;6.610;2023-12-04T02:00:13;0.60;1.00
16384;DHT22;8301;51.440;6.610;2023-12-04T02:02:40;0.60;1.00
16384;DHT22;8301;51.440;6.610;2023-12-04T02:05:12;0.60;1.00
16384;DHT22;8301;51.440;6.610;2023-12-04T02:07:40;0.50;1.00
16384;DHT22;8301;51.440;6.610;2023-12-04T02:10:07;0.50;1.00
16384;DHT22;8301;51.440;6.610;2023-12-04T02:12:36;0.50;1.00
16384;DHT22;8301;51.440;6.610;2023-12-04T02:15:03;0.50;1.00
16384;DHT22;8301;51.440;6.610;2023-12-04T02:17:32;0.50;1.00
16384;DHT22;8301;51.440;6.610;2023-12-04T02:19:59;0.50;1.00
16384;DHT22;8301;51.440;6.610;2023-12-04T02:22:26;0.50;1.00
16384;DHT22;8301;51.440;6.610;2023-12-04T02:24:53;0.50;1.00
16384;DHT22;8301;51.440;6.610;2023-12-04T02:27:22;0.50;1.00
16384;DHT22;8301;51.440;6.610;2023-12-04T02:29:55;0.50;1.00
16384;DHT22;8301;51.440;6.610;2023-12-04T02:32:18;0.50;1.00
16384;DHT22;8301;51.440;6.610;2023-12-04T02:34:45;0.60;1.00
16384;DHT22;8301;51.440;6.610;2023-12-04T02:37:14;0.50;1.00
16384;DHT22;8301;51.440;6.610;2023-12-04T02:39:41;0.50;1.00
16384;DHT22;8301;51.440;6.610;2023-12-04T02:42:09;0.60;1.00
16384;DHT22;8301;51.440;6.610;2023-12-04T02:44:35;0.50;1.00
16384;DHT22;8301;51.440;6.610;2023-12-04T02:47:02;0.50;1.00
16384;DHT22;8301;51.440;6.610;2023-12-04T02:49:29;0.50;1.00
16384;DHT22;8301;51.440;6.610;2023-12-04T02:51:56;0.60;1.00
16384;DHT22;8301;51.440;6.610;2023-12-04T02:54:23;0.60;1.00
16384;DHT22;8301;51.440;6.610;2023-12-04T02:56:50;0.60;1.00
16384;DHT22;8301;51.440;6.610;2023-12-04T02:59:17;0.60;1.00
16384;DHT22;8301;51.440;6.610;2023-12-04T03:01:43;0.60;1.00
16384;DHT22;8301;51.440;6.610;2023-12-04T03:04:10;0.60;99.90
16384;DHT22;8301;51.440;6.610;2023-12-04T03:06:37;0.60;99.90
16384;DHT22;8301;51.440;6.610;2023-12-04T03:09:04;0.60;99.90
16384;DHT22;8301;51.440;6.610;2023-12-04T03:11:31;0.60;99.90
16384;DHT22;8301;51.440;6.610;2023-12-04T03:13:59;0.60;99.90
16384;DHT22;8301;51.440;6.610;2023-12-04T03:16:28;0.60;99.90
16384;DHT22;8301;51.440;6.610;2023-12-04T03:18:55;0.60;99.90
16384;DHT22;8301;51.440;6.610;2023-12-04T03:21:21;0.60;99.90
16384;DHT22;8301;51.440;6.610;2023-12-04T03:23:48;0.60;99.90
16384;DHT22;8301;51.440;6.610;2023-12-04T03:26:15;0.70;99.90
16384;DHT22;8301;51.440;6.610;2023-12-04T03:28:42;0.70;99.90
16384;DHT22;8301;51.440;6.610;2023-12-04T03:31:09;0.70;99.90
16384;DHT22;8301;51.440;6.610;2023-12-04T03:33:36;0.60;99.90
16384;DHT22;8301;51.440;6.610;2023-12-04T03:36:03;0.70;99.90
16384;DHT22;8301;51.440;6.610;2023-12-04T03:38:30;0.70;99.90
16384;DHT22;8301;51.440;6.610;2023-12-04T03:40:57;0.70;99.90
16384;DHT22;8301;51.440;6.610;2023-12-04T03:43:23;0.70;99.90
16384;DHT22;8301;51.440;6.610;2023-12-04T03:45:50;0.70;99.90
16384;DHT22;8301;51.440;6.610;2023-12-04T03:48:20;0.70;99.90
16384;DHT22;8301;51.440;6.610;2023-12-04T03:50:45;0.70;99.90
16384;DHT22;8301;51.440;6.610;2023-12-04T03:53:12;0.70;99.90
16384;DHT22;8301;51.440;6.610;2023-12-04T03:55:39;0.70;99.90
16384;DHT22;8301;51.440;6.610;2023-12-04T03:58:07;0.70;99.90
16384;DHT22;8301;51.440;6.610;2023-12-04T04:00:34;0.70;99.90
16384;DHT22;8301;51.440;6.610;2023-12-04T04:03:01;0.70;99.90
16384;DHT22;8301;51.440;6.610;2023-12-04T04:05:28;0.70;99.90
16384;DHT22;8301;51.440;6.610;2023-12-04T04:07:55;0.70;99.90
16384;DHT22;8301;51.440;6.610;2023-12-04T04:10:21;0.70;99.90
16384;DHT22;8301;51.440;6.610;2023-12-04T04:12:50;0.70;99.90
16384;DHT22;8301;51.440;6.610;2023-12-04T04:15:17;0.70;99.90
16384;DHT22;8301;51.440;6.610;2023-12-04T04:17:43;0.70;99.90
16384;DHT22;8301;51.440;6.610;2023-12-04T04:20:12;0.70;99.90
16384;DHT22;8301;51.440;6.610;2023-12-04T04:22:40;0.70;99.90
16384;DHT22;8301;51.440;6.610;2023-12-04T04:25:07;0.70;99.90
16384;DHT22;8301;51.440;6.610;2023-12-04T04:27:34;0.70;99.90
16384;DHT22;8301;51.440;6.610;2023-12-04T04:30:01;0.70;99.90
16384;DHT22;8301;51.440;6.610;2023-12-04T04:32:28;0.70;99.90
16384;DHT22;8301;51.440;6.610;2023-12-04T04:34:55;0.70;99.90
16384;DHT22;8301;51.440;6.610;2023-12-04T04:37:22;0.70;99.90
16384;DHT22;8301;51.440;6.610;2023-12-04T04:39:48;0.70;99.90
16384;DHT22;8301;51.440;6.610;2023-12-04T04:42:18;0.70;99.90
16384;DHT22;8301;51.440;6.610;2023-12-04T04:44:45;0.70;99.90
16384;DHT22;8301;51.440;6.610;2023-12-04T04:47:12;0.70;99.90
16384;DHT22;8301;51.440;6.610;2023-12-04T04:49:38;0.80;99.90
16384;DHT22;8301;51.440;6.610;2023-12-04T04:52:07;0.80;99.90
16384;DHT22;8301;51.440;6.610;2023-12-04T04:54:34;0.80;99.90
16384;DHT22;8301;51.440;6.610;2023-12-04T04:57:01;0.70;99.90
16384;DHT22;8301;51.440;6.610;2023-12-04T04:59:27;0.80;99.90
16384;DHT22;8301;51.440;6.610;2023-12-04T05:01:56;0.80;99.90
16384;DHT22;8301;51.440;6.610;2023-12-04T05:04:23;0.80;99.90
16384;DHT22;8301;51.440;6.610;2023-12-04T05:06:49;0.80;99.90
16384;DHT22;8301;51.440;6.610;2023-12-04T05:09:16;0.80;99.90
16384;DHT22;8301;51.440;6.610;2023-12-04T05:11:43;0.70;99.90
16384;DHT22;8301;51.440;6.610;2023-12-04T05:14:10;0.70;99.90
16384;DHT22;8301;51.440;6.610;2023-12-04T05:16:37;0.80;99.90
16384;DHT22;8301;51.440;6.610;2023-12-04T05:19:04;0.80;99.90
16384;DHT22;8301;51.440;6.610;2023-12-04T05:21:31;0.70;99.90
16384;DHT22;8301;51.440;6.610;2023-12-04T05:23:57;0.70;99.90
16384;DHT22;8301;51.440;6.610;2023-12-04T05:26:24;0.70;99.90
16384;DHT22;8301;51.440;6.610;2023-12-04T05:28:51;0.70;99.90
16384;DHT22;8301;51.440;6.610;2023-12-04T05:31:18;0.70;99.90
16384;DHT22;8301;51.440;6.610;2023-12-04T05:33:45;0.70;99.90
16384;DHT22;8301;51.440;6.610;2023-12-04T05:36:11;0.70;99.80
16384;DHT22;8301;51.440;6.610;2023-12-04T05:38:38;0.80;95.90
16384;DHT22;8301;51.440;6.610;2023-12-04T05:41:05;0.70;99.90
16384;DHT22;8301;51.440;6.610;2023-12-04T05:43:32;0.70;99.90
16384;DHT22;8301;51.440;6.610;2023-12-04T05:45:59;0.70;99.90
16384;DHT22;8301;51.440;6.610;2023-12-04T05:48:26;0.70;98.00
16384;DHT22;8301;51.440;6.610;2023-12-04T05:50:52;0.70;99.90
16384;DHT22;8301;51.440;6.610;2023-12-04T05:53:19;0.80;99.90
16384;DHT22;8301;51.440;6.610;2023-12-04T05:55:46;0.80;99.90
16384;DHT22;8301;51.440;6.610;2023-12-04T05:58:13;0.80;99.90
16384;DHT22;8301;51.440;6.610;2023-12-04T06:00:40;0.70;99.90
16384;DHT22;8301;51.440;6.610;2023-12-04T06:03:07;0.70;99.90
16384;DHT22;8301;51.440;6.610;2023-12-04T06:05:34;0.80;99.90
16384;DHT22;8301;51.440;6.610;2023-12-04T06:08:00;0.70;99.90
16384;DHT22;8301;51.440;6.610;2023-12-04T06:10:27;0.70;99.90
16384;DHT22;8301;51.440;6.610;2023-12-04T06:12:54;0.70;99.90
16384;DHT22;8301;51.440;6.610;2023-12-04T06:15:21;0.70;99.90
16384;DHT22;8301;51.440;6.610;2023-12-04T06:17:48;0.70;99.90
16384;DHT22;8301;51.440;6.610;2023-12-04T06:20:14;0.70;99.90
16384;DHT22;8301;51.440;6.610;2023-12-04T06:22:41;0.70;99.90
16384;DHT22;8301;51.440;6.610;2023-12-04T06:25:08;0.70;99.90
16384;DHT22;8301;51.440;6.610;2023-12-04T06:27:35;0.70;99.90
16384;DHT22;8301;51.440;6.610;2023-12-04T06:30:05;0.70;99.90
16384;DHT22;8301;51.440;6.610;2023-12-04T06:32:32;0.70;99.90
16384;DHT22;8301;51.440;6.610;2023-12-04T06:34:59;0.70;99.90
16384;DHT22;8301;51.440;6.610;2023-12-04T06:37:26;0.70;99.90
16384;DHT22;8301;51.440;6.610;2023-12-04T06:39:53;0.70;99.90
16384;DHT22;8301;51.440;6.610;2023-12-04T06:42:20;0.70;99.90
16384;DHT22;8301;51.440;6.610;2023-12-04T06:44:47;0.80;99.90
16384;DHT22;8301;51.440;6.610;2023-12-04T06:47:14;0.80;99.90
16384;DHT22;8301;51.440;6.610;2023-12-04T06:49:42;0.80;99.90
16384;DHT22;8301;51.440;6.610;2023-12-04T06:52:09;0.80;99.90
16384;DHT22;8301;51.440;6.610;2023-12-04T06:54:36;0.80;99.90
16384;DHT22;8301;51.440;6.610;2023-12-04T06:57:03;0.80;99.90
16384;DHT22;8301;51.440;6.610;2023-12-04T06:59:30;0.80;99.90
16384;DHT22;8301;51.440;6.610;2023-12-04T07:01:57;0.70;99.90
16384;DHT22;8301;51.440;6.610;2023-12-04T07:04:24;0.70;99.90
16384;DHT22;8301;51.440;6.610;2023-12-04T07:11:44;0.70;99.90
16384;DHT22;8301;51.440;6.610;2023-12-04T07:14:15;0.70;99.90
16384;DHT22;8301;51.440;6.610;2023-12-04T07:16:40;0.70;99.90
16384;DHT22;8301;51.440;6.610;2023-12-04T07:19:09;0.70;99.90
16384;DHT22;8301;51.440;6.610;2023-12-04T07:21:37;0.70;99.90
16384;DHT22;8301;51.440;6.610;2023-12-04T07:24:04;0.70;99.90
16384;DHT22;8301;51.440;6.610;2023-12-04T07:26:31;0.70;99.90
16384;DHT22;8301;51.440;6.610;2023-12-04T07:28:58;0.70;99.90
16384;DHT22;8301;51.440;6.610;2023-12-04T07:31:25;0.80;99.90
16384;DHT22;8301;51.440;6.610;2023-12-04T07:36:18;0.80;99.90
16384;DHT22;8301;51.440;6.610;2023-12-04T07:38:45;0.80;99.90
16384;DHT22;8301;51.440;6.610;2023-12-04T07:43:39;0.80;99.90
16384;DHT22;8301;51.440;6.610;2023-12-04T07:48:33;0.90;99.90
16384;DHT22;8301;51.440;6.610;2023-12-04T07:53:26;0.80;99.90
16384;DHT22;8301;51.440;6.610;2023-12-04T07:55:53;0.90;99.90
16384;DHT22;8301;51.440;6.610;2023-12-04T07:58:20;0.90;99.90
16384;DHT22;8301;51.440;6.610;2023-12-04T08:00:47;0.90;99.90
16384;DHT22;8301;51.440;6.610;2023-12-04T08:03:14;1.00;99.90
16384;DHT22;8301;51.440;6.610;2023-12-04T08:05:41;1.00;99.90
16384;DHT22;8301;51.440;6.610;2023-12-04T08:08:08;1.00;99.90
16384;DHT22;8301;51.440;6.610;2023-12-04T08:10:34;1.00;99.90
16384;DHT22;8301;51.440;6.610;2023-12-04T08:13:03;1.00;99.90
16384;DHT22;8301;51.440;6.610;2023-12-04T08:15:31;1.00;99.90
16384;DHT22;8301;51.440;6.610;2023-12-04T08:17:58;1.10;99.90
16384;DHT22;8301;51.440;6.610;2023-12-04T08:20:26;1.20;99.90
16384;DHT22;8301;51.440;6.610;2023-12-04T08:22:54;1.20;99.90
16384;DHT22;8301;51.440;6.610;2023-12-04T08:25:20;1.20;99.90
16384;DHT22;8301;51.440;6.610;2023-12-04T08:27:47;1.20;99.90
16384;DHT22;8301;51.440;6.610;2023-12-04T08:30:15;1.20;99.90
16384;DHT22;8301;51.440;6.610;2023-12-04T08:32:42;1.20;99.90
16384;DHT22;8301;51.440;6.610;2023-12-04T08:35:09;1.20;99.90
16384;DHT22;8301;51.440;6.610;2023-12-04T08:37:36;1.20;99.90
16384;DHT22;8301;51.440;6.610;2023-12-04T08:40:03;1.30;97.50
16384;DHT22;8301;51.440;6.610;2023-12-04T08:42:30;1.30;99.90
16384;DHT22;8301;51.440;6.610;2023-12-04T08:44:57;1.30;97.40
16384;DHT22;8301;51.440;6.610;2023-12-04T08:47:23;1.40;98.00
16384;DHT22;8301;51.440;6.610;2023-12-04T08:49:51;1.40;53.90
16384;DHT22;8301;51.440;6.610;2023-12-04T08:52:18;1.50;44.90
16384;DHT22;8301;51.440;6.610;2023-12-04T08:54:45;1.50;32.60
16384;DHT22;8301;51.440;6.610;2023-12-04T08:57:12;1.50;32.90
16384;DHT22;8301;51.440;6.610;2023-12-04T08:59:38;1.50;34.30
16384;DHT22;8301;51.440;6.610;2023-12-04T09:02:05;1.50;33.90
16384;DHT22;8301;51.440;6.610;2023-12-04T09:06:59;1.60;15.80
16384;DHT22;8301;51.440;6.610;2023-12-04T09:09:26;1.70;1.00
16384;DHT22;8301;51.440;6.610;2023-12-04T09:11:52;1.70;1.00
16384;DHT22;8301;51.440;6.610;2023-12-04T09:14:19;1.70;1.00
16384;DHT22;8301;51.440;6.610;2023-12-04T09:16:46;1.70;1.00
16384;DHT22;8301;51.440;6.610;2023-12-04T09:19:13;1.70;1.00
16384;DHT22;8301;51.440;6.610;2023-12-04T09:21:40;1.70;1.00
16384;DHT22;8301;51.440;6.610;2023-12-04T09:24:07;1.70;1.00
16384;DHT22;8301;51.440;6.610;2023-12-04T09:26:33;1.70;1.00
16384;DHT22;8301;51.440;6.610;2023-12-04T09:29:00;1.70;1.00
16384;DHT22;8301;51.440;6.610;2023-12-04T09:36:22;1.70;1.00
16384;DHT22;8301;51.440;6.610;2023-12-04T09:38:49;1.70;1.00
16384;DHT22;8301;51.440;6.610;2023-12-04T09:41:15;1.70;1.00
16384;DHT22;8301;51.440;6.610;2023-12-04T09:43:43;1.70;1.00
16384;DHT22;8301;51.440;6.610;2023-12-04T09:46:22;1.70;1.00
16384;DHT22;8301;51.440;6.610;2023-12-04T09:48:49;1.70;1.00
16384;DHT22;8301;51.440;6.610;2023-12-04T09:54:19;1.80;1.00
16384;DHT22;8301;51.440;6.610;2023-12-04T09:56:57;1.90;1.00
16384;DHT22;8301;51.440;6.610;2023-12-04T09:59:26;1.90;1.00
16384;DHT22;8301;51.440;6.610;2023-12-04T10:01:58;1.90;1.00
16384;DHT22;8301;51.440;6.610;2023-12-04T10:04:26;1.90;1.00
16384;DHT22;8301;51.440;6.610;2023-12-04T10:06:53;1.90;1.00
16384;DHT22;8301;51.440;6.610;2023-12-04T10:09:24;1.90;1.00
16384;DHT22;8301;51.440;6.610;2023-12-04T10:11:51;1.90;1.00
16384;DHT22;8301;51.440;6.610;2023-12-04T10:14:18;1.90;1.00
16384;DHT22;8301;51.440;6.610;2023-12-04T10:16:46;1.90;1.00
16384;DHT22;8301;51.440;6.610;2023-12-04T10:19:14;1.90;1.00
16384;DHT22;8301;51.440;6.610;2023-12-04T10:21:42;2.00;1.00
16384;DHT22;8301;51.440;6.610;2023-12-04T10:24:09;1.90;1.00
16384;DHT22;8301;51.440;6.610;2023-12-04T10:26:36;2.00;1.00
16384;DHT22;8301;51.440;6.610;2023-12-04T10:29:03;2.00;1.00
16384;DHT22;8301;51.440;6.610;2023-12-04T10:31:34;2.00;1.00
16384;DHT22;8301;51.440;6.610;2023-12-04T10:34:04;2.00;1.00
16384;DHT22;8301;51.440;6.610;2023-12-04T10:36:31;2.00;1.00
16384;DHT22;8301;51.440;6.610;2023-12-04T10:38:58;2.00;1.00
16384;DHT22;8301;51.440;6.610;2023-12-04T10:41:27;2.00;1.00
16384;DHT22;8301;51.440;6.610;2023-12-04T10:43:53;2.00;1.00
16384;DHT22;8301;51.440;6.610;2023-12-04T10:46:27;2.00;1.00
16384;DHT22;8301;51.440;6.610;2023-12-04T10:48:51;2.00;1.00
16384;DHT22;8301;51.440;6.610;2023-12-04T10:51:18;2.00;1.00
16384;DHT22;8301;51.440;6.610;2023-12-04T10:53:45;2.00;1.00
16384;DHT22;8301;51.440;6.610;2023-12-04T10:56:18;2.00;1.00
16384;DHT22;8301;51.440;6.610;2023-12-04T10:58:42;2.10;1.00
16384;DHT22;8301;51.440;6.610;2023-12-04T11:01:10;2.10;1.00
16384;DHT22;8301;51.440;6.610;2023-12-04T11:03:43;2.10;1.00
16384;DHT22;8301;51.440;6.610;2023-12-04T11:06:10;2.10;1.00
16384;DHT22;8301;51.440;6.610;2023-12-04T11:08:39;2.10;1.00
16384;DHT22;8301;51.440;6.610;2023-12-04T11:11:12;2.10;1.00
16384;DHT22;8301;51.440;6.610;2023-12-04T11:13:37;2.10;1.00
16384;DHT22;8301;51.440;6.610;2023-12-04T11:18:51;2.20;1.00
16384;DHT22;8301;51.440;6.610;2023-12-04T11:21:18;2.20;1.00
16384;DHT22;8301;51.440;6.610;2023-12-04T11:23:46;2.20;1.00
16384;DHT22;8301;51.440;6.610;2023-12-04T11:26:13;2.20;1.00
16384;DHT22;8301;51.440;6.610;2023-12-04T11:28:41;2.20;1.00
16384;DHT22;8301;51.440;6.610;2023-12-04T11:31:09;2.20;1.00
16384;DHT22;8301;51.440;6.610;2023-12-04T11:33:36;2.20;1.00
16384;DHT22;8301;51.440;6.610;2023-12-04T11:36:07;2.20;1.00
16384;DHT22;8301;51.440;6.610;2023-12-04T11:38:34;2.20;1.00
16384;DHT22;8301;51.440;6.610;2023-12-04T11:41:18;2.20;1.00
16384;DHT22;8301;51.440;6.610;2023-12-04T11:43:45;2.20;1.00
16384;DHT22;8301;51.440;6.610;2023-12-04T11:46:25;2.20;1.00
16384;DHT22;8301;51.440;6.610;2023-12-04T11:48:55;2.10;1.00
16384;DHT22;8301;51.440;6.610;2023-12-04T11:54:11;2.10;54.30
16384;DHT22;8301;51.440;6.610;2023-12-04T11:56:39;2.10;99.90
16384;DHT22;8301;51.440;6.610;2023-12-04T11:59:07;2.10;99.90
16384;DHT22;8301;51.440;6.610;2023-12-04T12:01:38;2.10;99.90
16384;DHT22;8301;51.440;6.610;2023-12-04T12:04:05;2.10;99.90
16384;DHT22;8301;51.440;6.610;2023-12-04T12:06:37;2.10;1.00
16384;DHT22;8301;51.440;6.610;2023-12-04T12:09:02;2.10;1.00
16384;DHT22;8301;51.440;6.610;2023-12-04T12:11:29;2.00;1.00
16384;DHT22;8301;51.440;6.610;2023-12-04T12:13:55;2.00;1.00
16384;DHT22;8301;51.440;6.610;2023-12-04T12:16:27;2.00;1.00
16384;DHT22;8301;51.440;6.610;2023-12-04T12:23:45;2.00;1.00
16384;DHT22;8301;51.440;6.610;2023-12-04T12:26:12;1.90;99.90
16384;DHT22;8301;51.440;6.610;2023-12-04T12:28:39;1.90;99.90
16384;DHT22;8301;51.440;6.610;2023-12-04T12:31:06;1.90;99.90
16384;DHT22;8301;51.440;6.610;2023-12-04T12:33:33;1.80;99.90
16384;DHT22;8301;51.440;6.610;2023-12-04T12:35:59;1.80;99.90
16384;DHT22;8301;51.440;6.610;2023-12-04T12:38:28;1.80;99.90
16384;DHT22;8301;51.440;6.610;2023-12-04T12:40:55;1.80;99.90
16384;DHT22;8301;51.440;6.610;2023-12-04T12:43:22;1.80;99.90
16384;DHT22;8301;51.440;6.610;2023-12-04T12:45:49;1.80;99.90
16384;DHT22;8301;51.440;6.610;2023-12-04T12:48:16;1.80;1.00
16384;DHT22;8301;51.440;6.610;2023-12-04T12:50:43;1.70;1.00
16384;DHT22;8301;51.440;6.610;2023-12-04T12:53:10;1.70;1.00
16384;DHT22;8301;51.440;6.610;2023-12-04T12:55:41;1.70;1.00
16384;DHT22;8301;51.440;6.610;2023-12-04T12:58:11;1.70;1.00
16384;DHT22;8301;51.440;6.610;2023-12-04T13:00:41;1.80;1.00
16384;DHT22;8301;51.440;6.610;2023-12-04T13:03:16;1.80;1.00
16384;DHT22;8301;51.440;6.610;2023-12-04T13:05:43;1.80;1.00
16384;DHT22;8301;51.440;6.610;2023-12-04T13:08:12;1.80;1.00
16384;DHT22;8301;51.440;6.610;2023-12-04T13:10:38;1.80;1.00
16384;DHT22;8301;51.440;6.610;2023-12-04T13:13:09;1.80;32.80
16384;DHT22;8301;51.440;6.610;2023-12-04T13:15:33;1.80;41.60
16384;DHT22;8301;51.440;6.610;2023-12-04T13:18:00;1.80;1.00
16384;DHT22;8301;51.440;6.610;2023-12-04T13:20:28;1.80;22.60
16384;DHT22;8301;51.440;6.610;2023-12-04T13:22:54;1.80;1.00
16384;DHT22;8301;51.440;6.610;2023-12-04T13:25:21;1.80;21.70
16384;DHT22;8301;51.440;6.610;2023-12-04T13:27:49;1.80;1.00
16384;DHT22;8301;51.440;6.610;2023-12-04T13:30:16;1.80;1.00
16384;DHT22;8301;51.440;6.610;2023-12-04T13:32:43;1.80;99.90
16384;DHT22;8301;51.440;6.610;2023-12-04T13:35:10;1.80;99.90
16384;DHT22;8301;51.440;6.610;2023-12-04T13:37:37;1.80;99.90
16384;DHT22;8301;51.440;6.610;2023-12-04T13:40:05;1.80;99.90
16384;DHT22;8301;51.440;6.610;2023-12-04T13:42:36;1.80;99.90
16384;DHT22;8301;51.440;6.610;2023-12-04T13:45:21;1.80;99.90
16384;DHT22;8301;51.440;6.610;2023-12-04T13:47:48;1.80;99.90
16384;DHT22;8301;51.440;6.610;2023-12-04T13:50:16;1.80;99.90
16384;DHT22;8301;51.440;6.610;2023-12-04T13:52:43;1.90;99.90
16384;DHT22;8301;51.440;6.610;2023-12-04T13:55:10;1.90;99.90
16384;DHT22;8301;51.440;6.610;2023-12-04T13:57:39;1.90;99.90
16384;DHT22;8301;51.440;6.610;2023-12-04T14:00:07;1.90;99.90
16384;DHT22;8301;51.440;6.610;2023-12-04T14:02:34;1.90;99.90
16384;DHT22;8301;51.440;6.610;2023-12-04T14:05:03;1.90;99.90
16384;DHT22;8301;51.440;6.610;2023-12-04T14:07:30;1.90;99.90
16384;DHT22;8301;51.440;6.610;2023-12-04T14:09:56;1.90;99.90
16384;DHT22;8301;51.440;6.610;2023-12-04T14:12:23;1.90;99.90
16384;DHT22;8301;51.440;6.610;2023-12-04T14:14:50;1.90;99.90
16384;DHT22;8301;51.440;6.610;2023-12-04T14:17:19;2.00;93.30
16384;DHT22;8301;51.440;6.610;2023-12-04T14:19:45;2.00;1.00
16384;DHT22;8301;51.440;6.610;2023-12-04T14:22:12;2.00;99.90
16384;DHT22;8301;51.440;6.610;2023-12-04T14:24:39;2.00;99.90
16384;DHT22;8301;51.440;6.610;2023-12-04T14:27:06;2.00;1.00
16384;DHT22;8301;51.440;6.610;2023-12-04T14:29:33;2.00;1.00
16384;DHT22;8301;51.440;6.610;2023-12-04T14:32:01;2.00;1.00
16384;DHT22;8301;51.440;6.610;2023-12-04T14:34:27;2.00;1.00
16384;DHT22;8301;51.440;6.610;2023-12-04T14:36:55;2.00;1.00
16384;DHT22;8301;51.440;6.610;2023-12-04T14:39:21;2.00;1.00
16384;DHT22;8301;51.440;6.610;2023-12-04T14:41:49;2.10;1.00
16384;DHT22;8301;51.440;6.610;2023-12-04T14:44:16;2.10;1.00
16384;DHT22;8301;51.440;6.610;2023-12-04T14:46:43;2.10;1.00
16384;DHT22;8301;51.440;6.610;2023-12-04T14:49:11;2.10;1.00
16384;DHT22;8301;51.440;6.610;2023-12-04T14:51:38;2.10;1.00
16384;DHT22;8301;51.440;6.610;2023-12-04T14:54:05;2.10;1.00
16384;DHT22;8301;51.440;6.610;2023-12-04T14:56:42;2.10;1.00
16384;DHT22;8301;51.440;6.610;2023-12-04T14:59:27;2.10;1.00
16384;DHT22;8301;51.440;6.610;2023-12-04T15:02:12;2.10;1.00
16384;DHT22;8301;51.440;6.610;2023-12-04T15:04:57;2.10;1.00
16384;DHT22;8301;51.440;6.610;2023-12-04T15:07:32;2.10;1.00
16384;DHT22;8301;51.440;6.610;2023-12-04T15:10:04;2.10;1.00
16384;DHT22;8301;51.440;6.610;2023-12-04T15:12:44;2.10;1.00
16384;DHT22;8301;51.440;6.610;2023-12-04T15:15:29;2.10;1.00
16384;DHT22;8301;51.440;6.610;2023-12-04T15:18:14;2.10;1.00
16384;DHT22;8301;51.440;6.610;2023-12-04T15:20:55;2.10;1.00
16384;DHT22;8301;51.440;6.610;2023-12-04T15:23:21;2.10;1.00
16384;DHT22;8301;51.440;6.610;2023-12-04T15:25:48;2.10;1.00
16384;DHT22;8301;51.440;6.610;2023-12-04T15:28:16;2.10;1.00
16384;DHT22;8301;51.440;6.610;2023-12-04T15:30:43;2.00;1.00
16384;DHT22;8301;51.440;6.610;2023-12-04T15:33:10;2.00;1.00
16384;DHT22;8301;51.440;6.610;2023-12-04T15:35:38;2.00;1.00
16384;DHT22;8301;51.440;6.610;2023-12-04T15:38:05;1.90;84.20
16384;DHT22;8301;51.440;6.610;2023-12-04T15:40:32;1.90;29.50
16384;DHT22;8301;51.440;6.610;2023-12-04T15:42:59;1.80;99.90
16384;DHT22;8301;51.440;6.610;2023-12-04T15:45:25;1.80;99.90
16384;DHT22;8301;51.440;6.610;2023-12-04T15:47:52;1.80;99.90
16384;DHT22;8301;51.440;6.610;2023-12-04T15:50:21;1.80;99.90
16384;DHT22;8301;51.440;6.610;2023-12-04T15:52:48;1.70;1.00
16384;DHT22;8301;51.440;6.610;2023-12-04T15:55:15;1.60;3.30
16384;DHT22;8301;51.440;6.610;2023-12-04T15:57:42;1.50;1.00
16384;DHT22;8301;51.440;6.610;2023-12-04T16:00:11;1.40;99.90
16384;DHT22;8301;51.440;6.610;2023-12-04T16:02:41;1.30;94.00
16384;DHT22;8301;51.440;6.610;2023-12-04T16:05:08;1.30;1.00
16384;DHT22;8301;51.440;6.610;2023-12-04T16:07:36;1.20;1.00
16384;DHT22;8301;51.440;6.610;2023-12-04T16:10:04;1.20;1.00
16384;DHT22;8301;51.440;6.610;2023-12-04T16:12:35;1.20;99.90
16384;DHT22;8301;51.440;6.610;2023-12-04T16:15:02;1.20;99.90
16384;DHT22;8301;51.440;6.610;2023-12-04T16:17:29;1.20;99.90
16384;DHT22;8301;51.440;6.610;2023-12-04T16:19:56;1.20;99.90
16384;DHT22;8301;51.440;6.610;2023-12-04T16:22:24;1.20;99.90
16384;DHT22;8301;51.440;6.610;2023-12-04T16:24:51;1.20;99.90
16384;DHT22;8301;51.440;6.610;2023-12-04T16:27:18;1.20;99.90
16384;DHT22;8301;51.440;6.610;2023-12-04T16:29:45;1.20;99.90
16384;DHT22;8301;51.440;6.610;2023-12-04T16:32:12;1.20;99.90
16384;DHT22;8301;51.440;6.610;2023-12-04T16:34:38;1.20;99.90
16384;DHT22;8301;51.440;6.610;2023-12-04T16:37:05;1.20;99.90
16384;DHT22;8301;51.440;6.610;2023-12-04T16:39:32;1.20;99.90
16384;DHT22;8301;51.440;6.610;2023-12-04T16:41:59;1.20;99.90
16384;DHT22;8301;51.440;6.610;2023-12-04T16:44:26;1.20;99.90
16384;DHT22;8301;51.440;6.610;2023-12-04T16:46:52;1.30;99.90